Time;durP1;ratioP1;P1;durP2;ratioP2;P2;SDS_P1;SDS_P2;PMS_P1;PMS_P2;Temp;Humidity;BMP_temperature;BMP_pressure;BME280_temperature;BME280_humidity;BME280_pressure;Samples;Min_cycle;Max_cycle;Signal;HPM_P1;HPM_P2
2022/03/14 00:00:19;;;;;;;14.55;6.32;;;;;;;-0.35;36.03;98876.09;3191566;23;20021;-78
2022/03/14 00:01:54;;;;;;;14.25;6.20;;;;;;;-0.37;35.91;98872.59;3191713;23;20444;-78
2022/03/14 00:03:11;;;;;;;11.70;5.65;;;;;;;-0.47;36.07;98864.66;3191657;23;20124;-78
2022/03/14 00:04:28;;;;;;;13.55;6.65;;;;;;;-0.47;36.49;98877.53;3191680;23;20345;-79
2022/03/14 00:05:44;;;;;;;13.00;6.50;;;;;;;-0.50;36.70;98877.47;3191608;23;20021;-80
2022/03/14 00:07:00;;;;;;;13.57;5.82;;;;;;;-0.49;36.15;98874.06;3191740;23;20044;-79
2022/03/14 00:08:16;;;;;;;11.20;5.20;;;;;;;-0.44;36.02;98879.31;3175519;23;20441;-78
2022/03/14 00:09:31;;;;;;;13.30;6.13;;;;;;;-0.51;36.46;98885.13;3181705;23;20028;-79
2022/03/14 00:10:47;;;;;;;11.65;6.03;;;;;;;-0.58;36.41;98885.00;3191662;23;20515;-77
2022/03/14 00:12:07;;;;;;;15.15;6.45;;;;;;;-0.63;36.84;98886.59;3191752;23;20025;-78
2022/03/14 00:13:23;;;;;;;10.95;5.85;;;;;;;-0.64;36.93;98884.84;3191688;23;20441;-79
2022/03/14 00:14:38;;;;;;;11.93;5.82;;;;;;;-0.64;37.08;98886.56;3191640;23;20021;-79
2022/03/14 00:15:55;;;;;;;12.23;6.63;;;;;;;-0.62;37.03;98884.88;3191528;23;20017;-78
2022/03/14 00:17:11;;;;;;;12.70;6.45;;;;;;;-0.59;37.07;98890.97;3191612;23;20059;-79
2022/03/14 00:18:32;;;;;;;10.93;6.10;;;;;;;-0.61;36.99;98889.19;3191577;23;20376;-78
2022/03/14 00:19:49;;;;;;;11.50;5.72;;;;;;;-0.69;37.11;98890.72;3191877;23;20558;-78
2022/03/14 00:21:06;;;;;;;10.85;5.57;;;;;;;-0.73;37.15;98892.34;3191967;23;20415;-80
2022/03/14 00:22:22;;;;;;;10.93;5.45;;;;;;;-0.76;37.16;98897.41;3191346;23;20017;-78
2022/03/14 00:23:38;;;;;;;10.57;5.40;;;;;;;-0.77;37.37;98895.66;3191609;23;20100;-78
2022/03/14 00:24:54;;;;;;;12.50;5.93;;;;;;;-0.76;36.84;98898.28;3191829;23;20040;-78
2022/03/14 00:26:09;;;;;;;13.85;5.80;;;;;;;-0.82;36.94;98895.56;3191221;23;20016;-78
2022/03/14 00:27:25;;;;;;;12.32;5.85;;;;;;;-0.88;37.44;98900.53;3191704;23;20021;-78
2022/03/14 00:28:41;;;;;;;10.02;5.50;;;;;;;-0.94;37.57;98896.09;3191496;23;20020;-77
2022/03/14 00:29:57;;;;;;;14.50;6.68;;;;;;;-0.98;37.37;98896.84;3193312;23;20506;-78
2022/03/14 00:31:51;;;;;;;11.63;6.20;;;;;;;-0.97;37.55;98897.75;3192714;23;20100;-80
2022/03/14 00:33:07;;;;;;;13.40;5.57;;;;;;;-0.95;37.04;98907.22;3166038;23;20024;-77
2022/03/14 00:34:22;;;;;;;12.20;6.10;;;;;;;-0.98;38.01;98903.69;3192876;23;20017;-78
2022/03/14 00:35:39;;;;;;;12.02;5.90;;;;;;;-1.14;39.18;98901.59;3192799;23;20021;-78
2022/03/14 00:36:55;;;;;;;24.40;10.30;;;;;;;-1.15;40.43;98907.56;3192700;23;20625;-78
2022/03/14 00:38:11;;;;;;;32.42;12.00;;;;;;;-1.26;42.28;98913.22;3192268;23;20072;-79
2022/03/14 00:39:26;;;;;;;28.05;12.52;;;;;;;-1.46;43.88;98914.44;3192809;23;20028;-78
2022/03/14 00:40:42;;;;;;;25.63;11.65;;;;;;;-1.72;44.20;98918.81;3192570;23;20713;-77
2022/03/14 00:41:58;;;;;;;26.63;11.02;;;;;;;-1.79;44.21;98917.78;3192675;23;20534;-77
2022/03/14 00:43:13;;;;;;;21.02;9.60;;;;;;;-1.76;42.85;98917.00;3192948;23;20024;-76
2022/03/14 00:44:31;;;;;;;19.30;8.88;;;;;;;-1.92;43.16;98924.25;3192412;23;20391;-78
2022/03/14 00:45:47;;;;;;;20.35;9.60;;;;;;;-1.95;42.99;98918.16;3193501;23;20347;-77
2022/03/14 00:47:03;;;;;;;22.02;8.70;;;;;;;-2.03;43.02;98921.34;3193722;23;20044;-79
2022/03/14 00:48:19;;;;;;;18.90;9.05;;;;;;;-2.12;43.28;98921.09;3193892;23;20017;-78
2022/03/14 00:49:35;;;;;;;19.77;8.73;;;;;;;-2.20;43.27;98925.09;3195093;23;20017;-83
2022/03/14 00:50:50;;;;;;;20.45;9.10;;;;;;;-2.35;43.30;98928.06;3202377;23;20021;-77
2022/03/14 00:52:06;;;;;;;16.15;7.28;;;;;;;-2.37;43.32;98929.72;3202329;23;20020;-77
2022/03/14 00:53:22;;;;;;;21.95;8.05;;;;;;;-2.49;43.30;98931.06;3201848;23;20020;-77
2022/03/14 00:54:38;;;;;;;14.15;7.10;;;;;;;-2.50;43.55;98936.13;3202381;23;20032;-78
2022/03/14 00:55:53;;;;;;;14.02;7.13;;;;;;;-2.57;43.68;98929.94;3194029;23;20017;-77
2022/03/14 00:57:09;;;;;;;19.25;7.53;;;;;;;-2.56;44.01;98934.25;3192102;23;20013;-76
2022/03/14 00:58:26;;;;;;;15.50;7.38;;;;;;;-2.63;44.24;98932.31;3191680;23;20048;-76
2022/03/14 00:59:42;;;;;;;17.77;7.63;;;;;;;-2.65;44.34;98933.97;3192019;23;20544;-80
2022/03/14 01:00:57;;;;;;;16.95;7.50;;;;;;;-2.69;44.25;98927.84;3192217;23;20025;-79
2022/03/14 01:02:13;;;;;;;14.25;7.10;;;;;;;-2.77;44.50;98921.59;3191985;23;20511;-78
2022/03/14 01:03:29;;;;;;;16.58;7.47;;;;;;;-2.75;44.75;98933.66;3191928;23;20013;-78
2022/03/14 01:04:44;;;;;;;16.75;7.80;;;;;;;-2.77;44.50;98930.16;3191825;23;20025;-78
2022/03/14 01:06:00;;;;;;;18.00;8.07;;;;;;;-2.79;44.99;98925.78;3191808;23;20391;-78
2022/03/14 01:07:16;;;;;;;17.23;7.93;;;;;;;-2.78;44.72;98925.84;3192013;23;20091;-77
2022/03/14 01:08:32;;;;;;;16.35;7.72;;;;;;;-2.83;44.60;98935.06;3191698;23;20017;-78
2022/03/14 01:09:47;;;;;;;19.10;8.57;;;;;;;-2.80;45.65;98931.75;3191863;23;20044;-77
2022/03/14 01:11:03;;;;;;;21.92;8.57;;;;;;;-2.81;45.88;98930.84;3191721;23;20021;-78
2022/03/14 01:12:19;;;;;;;21.25;9.10;;;;;;;-2.88;46.29;98929.78;3191990;23;20456;-77
2022/03/14 01:13:35;;;;;;;22.50;9.95;;;;;;;-2.93;46.68;98927.88;3191781;23;20454;-78
2022/03/14 01:14:50;;;;;;;22.88;9.95;;;;;;;-3.01;46.77;98935.31;3191925;23;20017;-78
2022/03/14 01:16:06;;;;;;;24.60;9.05;;;;;;;-3.09;47.19;98929.91;3192318;23;20025;-77
2022/03/14 01:17:22;;;;;;;25.65;10.70;;;;;;;-3.09;46.96;98937.59;3191620;23;20340;-78
2022/03/14 01:18:37;;;;;;;27.25;10.00;;;;;;;-2.91;47.28;98936.50;3191572;23;20021;-78
2022/03/14 01:19:53;;;;;;;22.88;9.55;;;;;;;-2.93;47.05;98941.56;3191495;23;20088;-77
2022/03/14 01:21:08;;;;;;;24.98;10.98;;;;;;;-2.85;47.32;98941.84;3191915;23;20025;-77
2022/03/14 01:22:24;;;;;;;24.92;10.57;;;;;;;-2.84;48.35;98947.03;3192160;23;20021;-76
2022/03/14 01:23:40;;;;;;;21.98;10.40;;;;;;;-2.97;48.64;98942.31;3192066;23;20021;-77
2022/03/14 01:24:55;;;;;;;28.58;11.25;;;;;;;-3.06;47.96;98947.97;3192062;23;20072;-78
2022/03/14 01:26:11;;;;;;;22.88;9.65;;;;;;;-3.20;48.75;98946.63;3191621;23;20021;-79
2022/03/14 01:27:26;;;;;;;24.13;10.48;;;;;;;-3.34;48.55;98944.44;3191859;23;20451;-78
2022/03/14 01:28:43;;;;;;;26.98;10.95;;;;;;;-3.36;48.60;98955.44;3191608;23;20297;-79
2022/03/14 01:29:58;;;;;;;25.20;9.95;;;;;;;-3.41;48.82;98951.03;3191494;23;20021;-79
2022/03/14 01:31:14;;;;;;;23.40;9.60;;;;;;;-3.42;48.71;98946.72;3192012;23;20443;-78
2022/03/14 01:32:30;;;;;;;21.50;11.35;;;;;;;-3.45;49.12;98950.88;3191954;23;20017;-78
2022/03/14 01:33:46;;;;;;;21.77;9.60;;;;;;;-3.47;49.41;98950.78;3192184;23;20784;-77
2022/03/14 01:35:01;;;;;;;23.15;9.57;;;;;;;-3.49;49.32;98951.53;3191513;23;20028;-79
2022/03/14 01:36:18;;;;;;;22.75;10.45;;;;;;;-3.47;49.29;98949.94;3191648;23;20020;-77
2022/03/14 01:37:33;;;;;;;22.33;9.77;;;;;;;-3.49;50.10;98946.44;3191898;23;20021;-77
2022/03/14 01:38:49;;;;;;;20.60;10.10;;;;;;;-3.47;50.03;98955.06;3191608;23;20023;-76
2022/03/14 01:40:10;;;;;;;27.08;10.88;;;;;;;-3.50;49.89;98949.81;3191919;23;20067;-77
2022/03/14 01:41:27;;;;;;;22.30;10.25;;;;;;;-3.56;49.79;98958.16;3192901;23;20021;-77
2022/03/14 01:42:43;;;;;;;24.08;10.57;;;;;;;-3.61;49.92;98952.88;3193007;23;20324;-77
2022/03/14 01:44:01;;;;;;;24.93;10.53;;;;;;;-3.69;50.49;98956.81;3192775;23;20087;-79
2022/03/14 01:45:18;;;;;;;24.02;10.38;;;;;;;-3.68;50.38;98953.44;3192765;23;20025;-77
2022/03/14 01:46:34;;;;;;;27.58;10.40;;;;;;;-3.64;50.89;98949.31;3192632;23;20044;-76
2022/03/14 01:47:50;;;;;;;21.33;10.15;;;;;;;-3.63;51.08;98943.38;3193061;23;20028;-79
2022/03/14 01:49:06;;;;;;;23.17;10.75;;;;;;;-3.65;51.02;98945.00;3192986;23;20024;-80
2022/03/14 01:50:22;;;;;;;22.85;9.98;;;;;;;-3.69;51.17;98942.34;3192713;23;20021;-76
2022/03/14 01:51:39;;;;;;;24.90;10.65;;;;;;;-3.73;51.61;98943.03;3192762;23;20092;-77
2022/03/14 01:52:55;;;;;;;22.17;9.38;;;;;;;-3.70;51.59;98945.72;3192785;23;20075;-77
2022/03/14 01:54:11;;;;;;;24.52;10.80;;;;;;;-3.78;51.67;98941.09;3193025;23;20028;-77
2022/03/14 01:55:26;;;;;;;25.27;10.15;;;;;;;-3.88;51.87;98945.00;3192924;23;20177;-77
2022/03/14 01:56:43;;;;;;;26.02;10.35;;;;;;;-3.88;52.63;98945.91;3192802;23;20028;-79
2022/03/14 01:58:00;;;;;;;23.90;10.18;;;;;;;-3.99;52.39;98939.50;3192621;23;20027;-79
2022/03/14 01:59:15;;;;;;;27.55;11.23;;;;;;;-4.06;52.42;98940.06;3193022;23;20028;-78
2022/03/14 02:00:32;;;;;;;28.10;10.65;;;;;;;-4.14;53.33;98939.75;3192625;23;20517;-78
2022/03/14 02:01:47;;;;;;;21.73;9.70;;;;;;;-4.29;54.68;98940.91;3192947;23;20017;-77
2022/03/14 02:03:03;;;;;;;23.58;10.20;;;;;;;-4.25;55.78;98939.34;3192886;23;20051;-77
2022/03/14 02:04:18;;;;;;;24.52;9.82;;;;;;;-4.27;55.06;98944.41;3192912;23;20021;-76
2022/03/14 02:05:36;;;;;;;23.27;10.23;;;;;;;-4.31;54.55;98944.25;3192694;23;20080;-76
2022/03/14 02:06:53;;;;;;;25.58;10.35;;;;;;;-4.40;54.43;98943.06;3192681;23;20017;-77
2022/03/14 02:08:09;;;;;;;22.52;10.07;;;;;;;-4.36;53.75;98943.16;3193378;23;20017;-78
2022/03/14 02:09:24;;;;;;;22.65;9.00;;;;;;;-4.25;52.77;98947.03;3192743;23;20021;-78
2022/03/14 02:10:40;;;;;;;19.17;8.50;;;;;;;-4.24;52.47;98948.75;3192868;23;20531;-78
2022/03/14 02:11:56;;;;;;;20.92;8.82;;;;;;;-4.22;51.78;98941.16;3192669;23;20021;-78
2022/03/14 02:13:11;;;;;;;17.33;7.38;;;;;;;-4.15;51.50;98944.03;3192937;23;20040;-77
2022/03/14 02:14:27;;;;;;;19.30;7.93;;;;;;;-4.14;51.90;98945.75;3192758;23;20499;-78
2022/03/14 02:15:42;;;;;;;18.23;8.32;;;;;;;-4.12;52.23;98950.91;3192915;23;20503;-78
2022/03/14 02:16:58;;;;;;;17.48;7.78;;;;;;;-4.08;52.03;98954.47;3193119;23;20182;-77
2022/03/14 02:18:14;;;;;;;21.95;8.20;;;;;;;-4.13;52.20;98957.75;3192951;23;20028;-78
2022/03/14 02:19:29;;;;;;;23.08;9.75;;;;;;;-4.08;53.34;98964.69;3192724;23;20399;-78
2022/03/14 02:20:45;;;;;;;21.05;8.90;;;;;;;-4.06;53.08;98963.97;3192603;23;20421;-77
2022/03/14 02:22:03;;;;;;;20.20;8.48;;;;;;;-4.29;53.64;98963.06;3192867;23;20476;-78
2022/03/14 02:23:19;;;;;;;16.90;8.35;;;;;;;-4.34;53.86;98964.53;3193132;23;20028;-77
2022/03/14 02:24:35;;;;;;;23.90;8.80;;;;;;;-4.40;53.48;98968.59;3192665;23;20064;-77
2022/03/14 02:25:53;;;;;;;20.33;8.93;;;;;;;-4.35;53.26;98971.34;3192797;23;20017;-78
2022/03/14 02:27:08;;;;;;;18.48;8.45;;;;;;;-4.37;53.14;98978.09;3192804;23;20088;-78
2022/03/14 02:28:24;;;;;;;23.42;9.30;;;;;;;-4.34;52.79;98974.75;3192739;23;20021;-78
2022/03/14 02:29:41;;;;;;;20.85;8.98;;;;;;;-4.38;52.96;98985.69;3192856;23;20383;-77
2022/03/14 02:30:56;;;;;;;17.80;7.47;;;;;;;-4.42;53.16;98985.56;3192317;23;20452;-78
2022/03/14 02:32:12;;;;;;;20.75;8.52;;;;;;;-4.45;53.54;98985.47;3192613;23;20071;-78
2022/03/14 02:33:28;;;;;;;18.13;7.82;;;;;;;-4.48;53.22;98990.41;3192507;23;20087;-77
2022/03/14 02:34:43;;;;;;;19.92;8.45;;;;;;;-4.49;53.46;98992.94;3192213;23;20071;-78
2022/03/14 02:35:59;;;;;;;17.90;7.72;;;;;;;-4.62;54.05;98991.53;3192466;23;20093;-77
2022/03/14 02:37:14;;;;;;;21.88;8.50;;;;;;;-4.64;53.85;98988.94;3192490;23;20021;-78
2022/03/14 02:38:30;;;;;;;15.52;6.80;;;;;;;-4.65;53.46;98993.97;3192634;23;20075;-78
2022/03/14 02:39:47;;;;;;;16.63;7.85;;;;;;;-4.73;53.69;98988.53;3192530;23;20024;-77
2022/03/14 02:41:03;;;;;;;17.02;8.02;;;;;;;-4.88;54.39;98993.88;3192849;23;20048;-82
2022/03/14 02:42:18;;;;;;;19.85;8.75;;;;;;;-4.96;54.70;98994.41;3193055;23;20032;-79
2022/03/14 02:43:36;;;;;;;20.45;8.25;;;;;;;-4.90;55.03;98998.91;3193036;23;20021;-77
2022/03/14 02:44:52;;;;;;;18.42;8.63;;;;;;;-4.98;54.87;98992.59;3192679;23;20107;-78
2022/03/14 02:46:08;;;;;;;21.23;9.38;;;;;;;-4.97;54.88;98982.47;3192619;23;20072;-78
2022/03/14 02:47:23;;;;;;;19.52;8.52;;;;;;;-5.04;54.87;98985.53;3192599;23;20013;-77
2022/03/14 02:48:40;;;;;;;19.70;8.65;;;;;;;-5.08;55.07;98990.47;3192827;23;20466;-77
2022/03/14 02:49:55;;;;;;;18.98;8.38;;;;;;;-5.13;55.31;98995.38;3192570;23;20357;-78
2022/03/14 02:51:11;;;;;;;21.17;8.57;;;;;;;-5.19;55.63;98990.00;3192332;23;20021;-77
2022/03/14 02:52:27;;;;;;;19.27;8.93;;;;;;;-5.28;56.35;98993.00;3191953;23;20028;-78
2022/03/14 02:53:42;;;;;;;21.52;8.68;;;;;;;-5.35;56.28;98996.13;3192447;23;20021;-78
2022/03/14 02:54:58;;;;;;;19.75;7.80;;;;;;;-5.31;56.41;98998.88;3192654;23;20087;-77
2022/03/14 02:56:14;;;;;;;16.42;7.57;;;;;;;-5.44;56.84;99000.00;3192246;23;20344;-78
2022/03/14 02:57:31;;;;;;;19.90;8.65;;;;;;;-5.55;56.83;99008.84;3192918;23;20017;-77
2022/03/14 02:58:51;;;;;;;21.00;8.05;;;;;;;-5.57;56.55;99005.34;3192754;23;20025;-77
2022/03/14 03:00:08;;;;;;;18.10;7.85;;;;;;;-5.54;56.26;99000.38;3192537;23;20336;-81
2022/03/14 03:01:23;;;;;;;22.45;8.73;;;;;;;-5.56;56.59;99007.09;3192362;23;20021;-77
2022/03/14 03:02:42;;;;;;;14.80;7.57;;;;;;;-5.55;56.28;99009.72;3192286;23;20556;-77
2022/03/14 03:03:58;;;;;;;17.23;7.65;;;;;;;-5.60;55.90;99003.50;3192606;23;20304;-82
2022/03/14 03:05:13;;;;;;;17.95;7.93;;;;;;;-5.59;55.94;99012.91;3192455;23;20032;-78
2022/03/14 03:06:29;;;;;;;19.05;7.55;;;;;;;-5.54;55.92;99005.47;3192290;23;20403;-77
2022/03/14 03:07:48;;;;;;;17.08;8.18;;;;;;;-5.63;56.17;99011.03;3192512;23;20028;-77
2022/03/14 03:09:04;;;;;;;18.92;7.85;;;;;;;-5.75;56.51;99007.91;3192841;23;20344;-78
2022/03/14 03:10:23;;;;;;;16.80;7.85;;;;;;;-5.84;56.70;99011.81;3192589;23;20021;-78
2022/03/14 03:11:40;;;;;;;19.67;7.88;;;;;;;-5.84;57.18;99011.81;3192429;23;20024;-77
2022/03/14 03:12:55;;;;;;;24.10;9.05;;;;;;;-5.91;57.75;99011.44;3192860;23;20082;-77
2022/03/14 03:14:12;;;;;;;19.83;8.23;;;;;;;-5.90;57.47;99018.28;3192841;23;20020;-77
2022/03/14 03:15:28;;;;;;;18.48;7.97;;;;;;;-5.90;56.97;99008.94;3192767;23;20096;-77
2022/03/14 03:16:43;;;;;;;20.45;8.40;;;;;;;-5.89;56.48;99010.69;3192374;23;20060;-77
2022/03/14 03:17:59;;;;;;;20.05;8.23;;;;;;;-5.82;56.87;99010.19;3192465;23;20064;-78
2022/03/14 03:19:15;;;;;;;20.65;8.05;;;;;;;-5.66;56.52;99010.91;3192367;23;20021;-78
2022/03/14 03:20:30;;;;;;;17.13;7.38;;;;;;;-5.61;56.70;99008.56;3192492;23;20088;-77
2022/03/14 03:21:46;;;;;;;15.38;7.13;;;;;;;-5.53;56.30;99013.22;3192877;23;20013;-78
2022/03/14 03:23:02;;;;;;;17.40;7.53;;;;;;;-5.49;56.03;99004.03;3192890;23;20025;-77
2022/03/14 03:24:18;;;;;;;17.05;7.55;;;;;;;-5.44;55.91;99006.78;3192547;23;20448;-77
2022/03/14 03:25:33;;;;;;;15.80;6.95;;;;;;;-5.38;55.89;99007.06;3192534;23;20114;-78
2022/03/14 03:26:49;;;;;;;16.02;7.13;;;;;;;-5.44;55.89;99011.91;3192477;23;20021;-78
2022/03/14 03:28:04;;;;;;;17.73;7.68;;;;;;;-5.48;56.03;99012.53;3192299;23;20068;-79
2022/03/14 03:29:20;;;;;;;16.77;7.85;;;;;;;-5.60;55.85;99021.38;3192930;23;20093;-78
2022/03/14 03:30:36;;;;;;;16.10;7.05;;;;;;;-5.65;56.40;99017.75;3192225;23;20031;-77
2022/03/14 03:31:51;;;;;;;18.90;7.18;;;;;;;-5.67;56.98;99019.34;3192559;23;20024;-77
2022/03/14 03:33:07;;;;;;;16.33;7.10;;;;;;;-5.69;56.20;99021.81;3192702;23;20384;-77
2022/03/14 03:34:22;;;;;;;17.60;7.35;;;;;;;-5.75;56.95;99023.22;3192723;23;20020;-78
2022/03/14 03:35:38;;;;;;;17.63;7.22;;;;;;;-5.54;56.25;99025.88;3192369;23;20044;-78
2022/03/14 03:36:55;;;;;;;16.48;7.47;;;;;;;-5.41;57.05;99028.19;3192504;23;20017;-82
2022/03/14 03:38:10;;;;;;;16.05;7.07;;;;;;;-5.34;56.91;99029.34;3192587;23;20432;-77
2022/03/14 03:39:26;;;;;;;16.42;6.63;;;;;;;-5.30;56.45;99030.38;3192420;23;20152;-77
2022/03/14 03:40:42;;;;;;;18.45;7.07;;;;;;;-5.47;56.49;99037.25;3192928;23;20017;-77
2022/03/14 03:41:57;;;;;;;18.13;7.30;;;;;;;-5.51;56.72;99040.47;3192561;23;20060;-79
2022/03/14 03:43:14;;;;;;;17.67;7.75;;;;;;;-5.55;56.27;99045.44;3176744;23;20137;-82
2022/03/14 03:44:29;;;;;;;18.05;8.13;;;;;;;-5.58;56.60;99041.88;3183209;23;20593;-77
2022/03/14 03:45:45;;;;;;;16.73;7.68;;;;;;;-5.61;57.07;99045.13;3192516;23;20086;-77
2022/03/14 03:47:01;;;;;;;19.50;7.95;;;;;;;-5.63;56.85;99041.66;3192751;23;20013;-77
2022/03/14 03:48:17;;;;;;;17.17;7.47;;;;;;;-5.71;57.14;99043.84;3193335;23;20028;-77
2022/03/14 03:49:33;;;;;;;19.88;8.48;;;;;;;-5.79;57.48;99045.19;3192957;23;20021;-77
2022/03/14 03:50:49;;;;;;;17.55;7.50;;;;;;;-5.85;57.34;99040.66;3192719;23;20013;-78
2022/03/14 03:52:06;;;;;;;19.08;7.55;;;;;;;-5.86;57.32;99048.22;3192659;23;20041;-77
2022/03/14 03:53:21;;;;;;;20.30;7.93;;;;;;;-5.92;57.56;99046.25;3192329;23;20591;-78
2022/03/14 03:54:37;;;;;;;20.52;8.07;;;;;;;-5.94;57.96;99055.50;3193182;23;20052;-78
2022/03/14 03:55:53;;;;;;;18.17;7.15;;;;;;;-5.99;58.31;99054.44;3193404;23;20456;-78
2022/03/14 03:57:08;;;;;;;22.75;7.82;;;;;;;-6.01;57.84;99063.69;3193342;23;20021;-78
2022/03/14 03:58:24;;;;;;;17.85;6.95;;;;;;;-6.03;57.81;99050.88;3193629;23;20024;-78
2022/03/14 03:59:40;;;;;;;17.48;7.28;;;;;;;-6.16;57.87;99059.59;3194961;23;20056;-78
2022/03/14 04:00:55;;;;;;;19.38;7.18;;;;;;;-6.21;57.93;99067.84;3200450;23;20381;-77
2022/03/14 04:02:11;;;;;;;17.75;8.13;;;;;;;-6.28;58.15;99074.31;3200657;23;20017;-77
2022/03/14 04:03:27;;;;;;;14.18;6.78;;;;;;;-6.32;58.46;99067.28;3200872;23;20025;-77
2022/03/14 04:04:43;;;;;;;18.20;8.05;;;;;;;-6.35;58.37;99075.69;3195887;23;20375;-77
2022/03/14 04:05:58;;;;;;;19.30;7.57;;;;;;;-6.53;59.14;99073.94;3191785;23;20021;-77
2022/03/14 04:07:19;;;;;;;19.70;8.18;;;;;;;-6.57;59.25;99082.25;3191843;23;20017;-77
2022/03/14 04:08:35;;;;;;;15.82;7.15;;;;;;;-6.49;58.54;99081.78;3191813;23;20095;-78
2022/03/14 04:09:55;;;;;;;19.73;8.35;;;;;;;-6.53;58.95;99078.19;3191764;23;20444;-77
2022/03/14 04:11:11;;;;;;;19.92;8.10;;;;;;;-6.48;58.72;99083.50;3192332;23;20017;-77
2022/03/14 04:12:27;;;;;;;20.08;7.82;;;;;;;-6.46;58.87;99087.00;3192159;23;20036;-78
2022/03/14 04:13:42;;;;;;;21.95;8.35;;;;;;;-6.43;58.86;99082.91;3191978;23;20020;-78
2022/03/14 04:15:02;;;;;;;18.10;7.88;;;;;;;-6.40;58.75;99093.28;3192077;23;20025;-77
2022/03/14 04:16:18;;;;;;;18.75;8.38;;;;;;;-6.40;58.49;99095.84;3191541;23;20017;-77
2022/03/14 04:17:35;;;;;;;21.25;8.73;;;;;;;-6.43;58.84;99098.22;3192219;23;20463;-77
2022/03/14 04:18:51;;;;;;;19.33;8.15;;;;;;;-6.40;59.33;99100.94;3192355;23;20064;-77
2022/03/14 04:20:10;;;;;;;18.98;7.95;;;;;;;-6.39;59.24;99097.59;3192017;23;20021;-77
2022/03/14 04:21:26;;;;;;;15.48;7.53;;;;;;;-6.47;58.72;99106.50;3192134;23;20021;-78
2022/03/14 04:22:42;;;;;;;18.45;8.20;;;;;;;-6.53;59.94;99103.66;3191965;23;20352;-78
2022/03/14 04:23:57;;;;;;;19.25;8.10;;;;;;;-6.45;60.34;99106.59;3191622;23;20021;-78
2022/03/14 04:25:14;;;;;;;21.10;8.73;;;;;;;-6.47;59.68;99109.03;3192036;23;20024;-77
2022/03/14 04:26:29;;;;;;;20.27;8.60;;;;;;;-6.55;59.69;99115.44;3192038;23;20088;-79
2022/03/14 04:27:45;;;;;;;22.23;8.55;;;;;;;-6.67;60.62;99110.56;3191825;23;20383;-77
2022/03/14 04:29:01;;;;;;;23.23;8.52;;;;;;;-6.64;60.38;99112.41;3191954;23;20506;-78
2022/03/14 04:30:16;;;;;;;20.30;8.05;;;;;;;-6.74;60.87;99117.03;3191277;23;20144;-78
2022/03/14 04:31:32;;;;;;;17.38;8.10;;;;;;;-6.73;60.77;99126.41;3192072;23;20021;-77
2022/03/14 04:32:47;;;;;;;17.40;7.00;;;;;;;-6.76;60.57;99120.31;3192211;23;20044;-77
2022/03/14 04:34:03;;;;;;;18.98;8.05;;;;;;;-6.69;59.97;99122.34;3192002;23;20742;-78
2022/03/14 04:35:19;;;;;;;19.60;8.18;;;;;;;-6.74;61.28;99121.25;3192247;23;20052;-79
2022/03/14 04:36:34;;;;;;;20.02;7.88;;;;;;;-6.74;61.37;99128.91;3191529;23;20040;-77
2022/03/14 04:37:50;;;;;;;16.77;7.47;;;;;;;-6.80;60.98;99119.25;3190278;23;20048;-78
2022/03/14 04:39:05;;;;;;;24.88;9.32;;;;;;;-6.87;61.94;99130.78;3192227;23;20020;-80
2022/03/14 04:40:21;;;;;;;19.00;8.43;;;;;;;-6.83;61.13;99129.28;3192084;23;20040;-77
2022/03/14 04:41:37;;;;;;;18.52;7.68;;;;;;;-6.85;61.47;99120.69;3191508;23;20044;-78
2022/03/14 04:42:53;;;;;;;19.17;7.72;;;;;;;-6.89;61.95;99118.78;3192278;23;20099;-78
2022/03/14 04:44:09;;;;;;;18.13;7.40;;;;;;;-6.84;62.01;99119.91;3191744;23;20013;-77
2022/03/14 04:45:25;;;;;;;20.75;7.45;;;;;;;-6.74;61.48;99124.66;3191731;23;20017;-78
2022/03/14 04:46:40;;;;;;;22.35;8.07;;;;;;;-6.76;61.63;99128.81;3191881;23;20032;-81
2022/03/14 04:47:56;;;;;;;19.52;8.90;;;;;;;-6.70;61.23;99124.06;3192162;23;20040;-77
2022/03/14 04:49:14;;;;;;;25.10;8.27;;;;;;;-6.64;61.03;99128.56;3191952;23;20036;-79
2022/03/14 04:50:30;;;;;;;20.70;7.95;;;;;;;-6.63;60.94;99129.44;3191795;23;20068;-78
2022/03/14 04:51:49;;;;;;;22.00;8.63;;;;;;;-6.67;61.04;99131.84;3191638;23;20017;-77
2022/03/14 04:53:06;;;;;;;22.08;8.45;;;;;;;-6.72;61.27;99128.16;3192003;23;20021;-78
2022/03/14 04:54:22;;;;;;;20.65;8.65;;;;;;;-6.72;61.93;99133.25;3191542;23;20021;-78
2022/03/14 04:55:38;;;;;;;21.45;8.43;;;;;;;-6.59;61.63;99131.34;3191820;23;20041;-80
2022/03/14 04:56:54;;;;;;;19.08;8.15;;;;;;;-6.54;61.62;99137.56;3192350;23;20017;-80
2022/03/14 04:58:12;;;;;;;21.23;7.95;;;;;;;-6.44;61.94;99149.09;3191872;23;20009;-77
2022/03/14 04:59:27;;;;;;;20.40;7.57;;;;;;;-6.38;60.70;99146.84;3192143;23;20115;-78
2022/03/14 05:00:43;;;;;;;17.42;7.47;;;;;;;-6.22;60.10;99145.06;3191704;23;20020;-78
2022/03/14 05:01:59;;;;;;;16.83;7.18;;;;;;;-6.15;59.97;99142.06;3191731;23;20111;-77
2022/03/14 05:03:14;;;;;;;18.33;8.13;;;;;;;-6.15;59.20;99134.41;3191506;23;20101;-77
2022/03/14 05:04:30;;;;;;;19.27;8.25;;;;;;;-6.27;59.66;99140.63;3191230;23;20420;-79
2022/03/14 05:05:45;;;;;;;20.00;8.35;;;;;;;-6.41;60.38;99145.03;3191541;23;20020;-79
2022/03/14 05:07:01;;;;;;;22.92;8.38;;;;;;;-6.45;60.23;99144.81;3192050;23;20059;-78
2022/03/14 05:08:17;;;;;;;21.35;7.68;;;;;;;-6.47;59.87;99144.72;3191515;23;20036;-78
2022/03/14 05:09:32;;;;;;;17.27;7.85;;;;;;;-6.56;59.96;99149.34;3191786;23;20055;-78
2022/03/14 05:10:50;;;;;;;15.13;7.20;;;;;;;-6.58;59.68;99148.38;3191605;23;20025;-78
2022/03/14 05:12:06;;;;;;;15.23;6.93;;;;;;;-6.59;59.77;99150.06;3191706;23;20017;-78
2022/03/14 05:13:21;;;;;;;18.15;7.65;;;;;;;-6.67;60.30;99151.31;3191723;23;20025;-77
2022/03/14 05:14:37;;;;;;;18.85;7.75;;;;;;;-6.76;60.52;99164.47;3191643;23;20021;-79
2022/03/14 05:15:53;;;;;;;17.73;7.25;;;;;;;-6.81;60.41;99158.25;3191656;23;20021;-78
2022/03/14 05:17:08;;;;;;;17.88;7.80;;;;;;;-6.88;60.14;99154.50;3191963;23;20379;-78
2022/03/14 05:18:24;;;;;;;15.07;6.75;;;;;;;-6.95;60.42;99155.84;3191762;23;20021;-76
2022/03/14 05:19:39;;;;;;;19.25;7.88;;;;;;;-6.92;59.94;99155.13;3191689;23;20023;-81
2022/03/14 05:20:56;;;;;;;20.15;7.97;;;;;;;-6.99;60.61;99161.56;3191569;23;20017;-78
2022/03/14 05:22:11;;;;;;;19.58;7.43;;;;;;;-7.05;60.55;99161.25;3191666;23;20017;-79
2022/03/14 05:23:28;;;;;;;18.92;7.30;;;;;;;-7.06;60.75;99159.50;3190939;23;20323;-78
2022/03/14 05:24:44;;;;;;;19.52;7.68;;;;;;;-7.04;60.83;99160.44;3191471;23;20060;-79
2022/03/14 05:26:00;;;;;;;20.58;8.13;;;;;;;-7.02;60.86;99165.63;3191246;23;20028;-76
2022/03/14 05:27:16;;;;;;;20.52;7.13;;;;;;;-7.10;61.46;99160.97;3191793;23;20348;-79
2022/03/14 05:28:31;;;;;;;17.05;7.50;;;;;;;-7.05;61.15;99163.78;3191464;23;20017;-76
2022/03/14 05:29:47;;;;;;;16.75;7.85;;;;;;;-7.03;61.12;99163.88;3191651;23;20342;-79
2022/03/14 05:31:02;;;;;;;19.23;7.53;;;;;;;-6.97;60.95;99162.53;3191426;23;20041;-77
2022/03/14 05:32:18;;;;;;;20.58;7.25;;;;;;;-6.99;61.65;99161.56;3191558;23;20025;-77
2022/03/14 05:33:34;;;;;;;14.40;6.47;;;;;;;-6.95;61.79;99160.94;3191326;23;20021;-79
2022/03/14 05:34:49;;;;;;;14.18;6.40;;;;;;;-6.96;61.82;99160.84;3191726;23;20032;-79
2022/03/14 05:36:05;;;;;;;19.52;7.72;;;;;;;-7.00;62.29;99157.25;3190872;23;20017;-77
2022/03/14 05:37:21;;;;;;;18.13;7.70;;;;;;;-7.06;62.74;99169.66;3191235;23;20318;-79
2022/03/14 05:38:36;;;;;;;19.92;8.15;;;;;;;-7.07;62.51;99175.56;3191498;23;20076;-77
2022/03/14 05:39:52;;;;;;;20.08;7.05;;;;;;;-7.09;62.30;99167.81;3191226;23;20039;-77
2022/03/14 05:41:08;;;;;;;18.35;7.78;;;;;;;-6.94;62.34;99169.44;3191149;23;20084;-77
2022/03/14 05:42:24;;;;;;;17.85;7.75;;;;;;;-6.93;62.57;99167.78;3191810;23;20025;-77
2022/03/14 05:43:39;;;;;;;18.58;7.88;;;;;;;-6.93;62.69;99171.19;3191767;23;20017;-77
2022/03/14 05:44:55;;;;;;;21.88;8.20;;;;;;;-6.97;62.85;99165.09;3191404;23;20399;-78
2022/03/14 05:46:11;;;;;;;19.00;7.20;;;;;;;-7.02;63.40;99166.47;3191267;23;20088;-77
2022/03/14 05:47:26;;;;;;;21.88;8.57;;;;;;;-6.94;63.20;99174.53;3191530;23;20028;-77
2022/03/14 05:48:42;;;;;;;20.30;7.85;;;;;;;-6.78;63.04;99176.25;3191334;23;20025;-78
2022/03/14 05:49:57;;;;;;;19.15;7.55;;;;;;;-6.77;62.01;99170.34;3191589;23;20020;-76
2022/03/14 05:51:13;;;;;;;14.68;6.93;;;;;;;-6.76;61.68;99172.09;3191715;23;20021;-77
2022/03/14 05:52:29;;;;;;;18.15;7.60;;;;;;;-6.79;62.03;99171.94;3191566;23;20021;-77
2022/03/14 05:53:44;;;;;;;17.58;6.63;;;;;;;-6.77;61.39;99175.44;3191935;23;20017;-78